Wilson Clyde — 8PRV — position and weather

sailwx.info

Track history (hours):
 
Tides and Currents Weather Stations Pressure Air Temp Water Temp Dewpoint Dewpoint Depression Visibility Wind Speed Wind Dir Waves Ship Positions

Wilson Clyde

Last reported at 2014-Sep-17 02:06 UTC. Time now 2014-Sep-18 17:49 UTC.
Position N 56°26' E 017°39'.

Length 100 m; draft 5.8 m.

Type: Ship. MMSI: 314187000.

Date/timePositionNaut miles runAvg speedWind from/ knotsBaromVisibWave heightAir tempDewpointWater temp
2014-Sep-17 02:06N 56°26' E 017°39'610.3
2014-Sep-17 01:33N 56°23' E 017°31'1210.3
2014-Sep-17 00:22N 56°15' E 017°13'910.5
2014-Sep-16 23:29N 56°10' E 016°60'6310.3
2014-Sep-16 17:21N 55°37' E 015°23'810.0
2014-Sep-16 16:33N 55°33' E 015°11'1010.1
2014-Sep-16 15:33N 55°28' E 014°56'1010.0
2014-Sep-16 14:33N 55°23' E 014°40'1110.6
2014-Sep-16 13:33N 55°15' E 014°29'1110.6
2014-Sep-16 12:33N 55°07' E 014°17'1010.3
2014-Sep-16 11:33N 54°60' E 014°04'1010.4
2014-Sep-16 10:33N 54°56' E 013°47'1010.2
2014-Sep-16 09:32N 54°53' E 013°30'1010.1
2014-Sep-16 08:33N 54°50' E 013°13'1010.1
2014-Sep-16 07:33N 54°47' E 012°57'10 9.8
2014-Sep-16 06:33N 54°43' E 012°41'10 9.7
2014-Sep-16 05:33N 54°37' E 012°28'10 9.5
2014-Sep-16 04:33N 54°30' E 012°16'9 8.6
2014-Sep-16 03:33N 54°24' E 012°06'10 9.6
2014-Sep-16 02:33N 54°24' E 011°49'9 8.8
2014-Sep-16 01:33N 54°27' E 011°35'9 8.8
2014-Sep-16 00:33N 54°31' E 011°21'8 7.9
2014-Sep-15 23:33N 54°35' E 011°09'67 6.6
2014-Sep-15 13:32N 54°09' E 009°23'8 7.8
2014-Sep-15 12:33N 54°03' E 009°18'5 4.9
2014-Sep-15 11:33N 53°58' E 009°15'6 5.8
2014-Sep-15 10:33N 53°54' E 009°09'5 4.8
2014-Sep-15 09:33N 53°52' E 009°01'8 7.7
2014-Sep-15 08:33N 53°50' E 008°48'7 7.4
2014-Sep-15 07:33N 53°56' E 008°40'8 7.9
2014-Sep-15 06:33N 53°59' E 008°27'9 9.0
2014-Sep-15 05:33N 53°59' E 008°12'9 8.8
2014-Sep-15 04:32N 53°58' E 007°57'6510.9
2014-Sep-14 22:33N 53°42' E 006°10'1111.0
2014-Sep-14 21:33N 53°38' E 005°52'1111.0
2014-Sep-14 20:33N 53°35' E 005°35'1111.0
2014-Sep-14 19:33N 53°31' E 005°17'1110.5
2014-Sep-14 18:33N 53°28' E 005°00'11 9.8
2014-Sep-14 17:25N 53°24' E 004°43'14210.2
2014-Sep-14 03:32N 51°33' E 002°17'1411.6
2014-Sep-14 02:19N 51°22' E 002°02'810.9
2014-Sep-14 01:33N 51°16' E 001°54'59 8.1
2014-Sep-13 18:16N 50°29' E 000°57'6 8.7
2014-Sep-13 17:33N 50°27' E 000°48'9 8.8
2014-Sep-13 16:33N 50°25' E 000°35'259 5.5
2014-Sep-11 17:33N 53°33' W 004°14'1110.9
2014-Sep-11 16:33N 53°33' W 003°56'9 8.6
2014-Sep-11 15:33N 53°33' W 003°41'1312.8
2014-Sep-11 14:33N 53°32' W 003°20'8 8.0
2014-Sep-11 13:33N 53°31' W 003°07'11 1.7
2014-Sep-11 07:33N 53°21' W 002°59'  
2014-Sep-07 08:04N 53°29' W 003°05'811.3
2014-Sep-07 07:23N 53°31' W 003°18'  
Track history (hours):
 
Tides and Currents Weather Stations Pressure Air Temp Water Temp Dewpoint Dewpoint Depression Visibility Wind Speed Wind Dir Waves Ship Positions

Wilson Clyde

Last reported at 2014-Sep-17 02:06 UTC. Time now 2014-Sep-18 17:49 UTC.
Position N 56°26' E 017°39'.

Length 100 m; draft 5.8 m.

Type: Ship. MMSI: 314187000.

Date/timePositionNaut miles runAvg speedWind from/ knotsBaromVisibWave heightAir tempDewpointWater temp
2014-Sep-17 02:06N 56°26' E 017°39'610.3
2014-Sep-17 01:33N 56°23' E 017°31'1210.3
2014-Sep-17 00:22N 56°15' E 017°13'910.5
2014-Sep-16 23:29N 56°10' E 016°60'6310.3
2014-Sep-16 17:21N 55°37' E 015°23'810.0
2014-Sep-16 16:33N 55°33' E 015°11'1010.1
2014-Sep-16 15:33N 55°28' E 014°56'1010.0
2014-Sep-16 14:33N 55°23' E 014°40'1110.6
2014-Sep-16 13:33N 55°15' E 014°29'1110.6
2014-Sep-16 12:33N 55°07' E 014°17'1010.3
2014-Sep-16 11:33N 54°60' E 014°04'1010.4
2014-Sep-16 10:33N 54°56' E 013°47'1010.2
2014-Sep-16 09:32N 54°53' E 013°30'1010.1
2014-Sep-16 08:33N 54°50' E 013°13'1010.1
2014-Sep-16 07:33N 54°47' E 012°57'10 9.8
2014-Sep-16 06:33N 54°43' E 012°41'10 9.7
2014-Sep-16 05:33N 54°37' E 012°28'10 9.5
2014-Sep-16 04:33N 54°30' E 012°16'9 8.6
2014-Sep-16 03:33N 54°24' E 012°06'10 9.6
2014-Sep-16 02:33N 54°24' E 011°49'9 8.8
2014-Sep-16 01:33N 54°27' E 011°35'9 8.8
2014-Sep-16 00:33N 54°31' E 011°21'8 7.9
2014-Sep-15 23:33N 54°35' E 011°09'67 6.6
2014-Sep-15 13:32N 54°09' E 009°23'8 7.8
2014-Sep-15 12:33N 54°03' E 009°18'5 4.9
2014-Sep-15 11:33N 53°58' E 009°15'6 5.8
2014-Sep-15 10:33N 53°54' E 009°09'5 4.8
2014-Sep-15 09:33N 53°52' E 009°01'8 7.7
2014-Sep-15 08:33N 53°50' E 008°48'7 7.4
2014-Sep-15 07:33N 53°56' E 008°40'8 7.9
2014-Sep-15 06:33N 53°59' E 008°27'9 9.0
2014-Sep-15 05:33N 53°59' E 008°12'9 8.8
2014-Sep-15 04:32N 53°58' E 007°57'6510.9
2014-Sep-14 22:33N 53°42' E 006°10'1111.0
2014-Sep-14 21:33N 53°38' E 005°52'1111.0
2014-Sep-14 20:33N 53°35' E 005°35'1111.0
2014-Sep-14 19:33N 53°31' E 005°17'1110.5
2014-Sep-14 18:33N 53°28' E 005°00'11 9.8
2014-Sep-14 17:25N 53°24' E 004°43'14210.2
2014-Sep-14 03:32N 51°33' E 002°17'1411.6
2014-Sep-14 02:19N 51°22' E 002°02'810.9
2014-Sep-14 01:33N 51°16' E 001°54'59 8.1
2014-Sep-13 18:16N 50°29' E 000°57'6 8.7
2014-Sep-13 17:33N 50°27' E 000°48'9 8.8
2014-Sep-13 16:33N 50°25' E 000°35'259 5.5
2014-Sep-11 17:33N 53°33' W 004°14'1110.9
2014-Sep-11 16:33N 53°33' W 003°56'9 8.6
2014-Sep-11 15:33N 53°33' W 003°41'1312.8
2014-Sep-11 14:33N 53°32' W 003°20'8 8.0
2014-Sep-11 13:33N 53°31' W 003°07'11 1.7
2014-Sep-11 07:33N 53°21' W 002°59'  
2014-Sep-07 08:04N 53°29' W 003°05'811.3
2014-Sep-07 07:23N 53°31' W 003°18'  

Dump ship's entire track history